Time;durP1;ratioP1;P1;durP2;ratioP2;P2;SDS_P1;SDS_P2;PMS_P1;PMS_P2;Temp;Humidity;BMP_temperature;BMP_pressure;BME280_temperature;BME280_humidity;BME280_pressure;Samples;Min_cycle;Max_cycle;Signal;HPM_P1;HPM_P2
2021/03/02 00:01:10;;;;;;;42.95;27.45;;;6.80;92.90;;;;;;4955862;29;20051;-75
2021/03/02 00:03:37;;;;;;;34.33;19.55;;;6.90;92.60;;;;;;4971950;28;20062;-76
2021/03/02 00:06:07;;;;;;;31.58;18.35;;;6.50;93.20;;;;;;4975051;28;20019;-76
2021/03/02 00:08:37;;;;;;;28.73;18.25;;;6.30;95.00;;;;;;4974606;28;20027;-76
2021/03/02 00:11:04;;;;;;;30.65;18.70;;;6.40;94.30;;;;;;4974847;28;20058;-77
2021/03/02 00:13:31;;;;;;;28.83;17.63;;;6.50;93.90;;;;;;4974008;28;20069;-76
2021/03/02 00:16:03;;;;;;;33.08;18.23;;;6.60;93.70;;;;;;4974547;28;20072;-78
2021/03/02 00:18:35;;;;;;;27.20;18.77;;;6.70;93.70;;;;;;4972096;28;20027;-75
2021/03/02 00:21:12;;;;;;;32.13;17.77;;;6.70;93.20;;;;;;4963162;28;20031;-75
2021/03/02 00:23:43;;;;;;;27.48;17.30;;;6.20;94.20;;;;;;4973312;28;20027;-75
2021/03/02 00:26:12;;;;;;;29.77;17.60;;;6.30;95.00;;;;;;4974676;28;20019;-74
2021/03/02 00:28:39;;;;;;;28.45;18.08;;;6.40;94.70;;;;;;4974514;28;20364;-75
2021/03/02 00:31:06;;;;;;;30.75;17.60;;;6.40;94.50;;;;;;4974892;28;20030;-76
2021/03/02 00:33:34;;;;;;;28.77;17.38;;;6.50;94.30;;;;;;4974545;28;20019;-76
2021/03/02 00:35:59;;;;;;;30.45;16.95;;;6.50;94.10;;;;;;4973831;28;20023;-75
2021/03/02 00:38:25;;;;;;;32.78;16.83;;;6.20;95.00;;;;;;4974225;28;20018;-76
2021/03/02 00:40:51;;;;;;;26.35;16.70;;;6.20;95.20;;;;;;4974097;28;20031;-76
2021/03/02 00:43:17;;;;;;;26.02;15.75;;;6.10;96.00;;;;;;4974323;28;20042;-77
2021/03/02 00:45:43;;;;;;;17.73;12.68;;;5.90;96.90;;;;;;4974464;28;20085;-78
2021/03/02 00:48:10;;;;;;;20.45;12.52;;;5.80;97.10;;;;;;4974590;28;20113;-79
2021/03/02 00:50:35;;;;;;;32.05;15.85;;;6.00;97.30;;;;;;4973923;28;20113;-76
2021/03/02 00:53:01;;;;;;;23.90;14.65;;;4.90;99.30;;;;;;4974487;28;20098;-75
2021/03/02 00:55:27;;;;;;;22.05;14.15;;;5.20;99.90;;;;;;4973710;28;20368;-76
2021/03/02 00:57:53;;;;;;;26.17;14.65;;;5.60;99.30;;;;;;4974427;28;20027;-75
2021/03/02 01:00:19;;;;;;;21.85;13.18;;;5.70;98.60;;;;;;4974102;28;20361;-78
2021/03/02 01:02:45;;;;;;;21.40;13.40;;;5.80;98.50;;;;;;4974302;28;20019;-77
2021/03/02 01:05:11;;;;;;;20.15;12.88;;;5.70;98.10;;;;;;4973849;28;20019;-78
2021/03/02 01:07:37;;;;;;;19.33;13.35;;;5.70;98.00;;;;;;4973992;28;20015;-75
2021/03/02 01:10:05;;;;;;;21.08;12.90;;;5.60;98.30;;;;;;4973352;28;20041;-74
2021/03/02 01:12:31;;;;;;;21.80;12.07;;;5.50;99.20;;;;;;4973905;28;20026;-74
2021/03/02 01:14:57;;;;;;;19.35;12.80;;;5.70;98.80;;;;;;4973936;28;20019;-77
2021/03/02 01:17:23;;;;;;;21.73;12.52;;;5.80;98.00;;;;;;4974416;28;20023;-75
2021/03/02 01:19:49;;;;;;;23.00;13.38;;;5.70;98.10;;;;;;4973638;28;20046;-76
2021/03/02 01:22:15;;;;;;;20.23;11.80;;;5.80;98.10;;;;;;4974127;28;20023;-75
2021/03/02 01:24:41;;;;;;;21.98;13.93;;;5.70;97.90;;;;;;4972093;28;20031;-75
2021/03/02 01:27:07;;;;;;;25.50;14.98;;;5.60;98.40;;;;;;4973065;28;20065;-74
2021/03/02 01:29:33;;;;;;;23.98;14.45;;;5.80;97.70;;;;;;4955844;28;20435;-75
2021/03/02 01:31:58;;;;;;;24.23;15.07;;;5.70;97.90;;;;;;4974103;28;20046;-76
2021/03/02 01:34:24;;;;;;;28.27;15.38;;;5.60;97.90;;;;;;4973840;28;20053;-76
2021/03/02 01:36:50;;;;;;;26.38;16.45;;;5.60;98.50;;;;;;4973204;28;20023;-77
2021/03/02 01:39:17;;;;;;;29.08;16.30;;;5.40;98.70;;;;;;4954078;29;20143;-75
2021/03/02 01:41:52;;;;;;;26.40;15.43;;;5.40;99.10;;;;;;4953899;29;20023;-76
2021/03/02 01:44:18;;;;;;;25.17;14.57;;;5.30;99.30;;;;;;4954185;29;20047;-75
2021/03/02 01:46:46;;;;;;;23.92;15.18;;;5.40;99.30;;;;;;4953800;29;20027;-75
2021/03/02 01:49:11;;;;;;;21.48;14.40;;;5.20;99.40;;;;;;4973314;28;20086;-74
2021/03/02 01:51:38;;;;;;;23.35;13.85;;;5.30;99.40;;;;;;4972966;28;20070;-78
2021/03/02 01:54:04;;;;;;;21.70;13.98;;;5.20;99.30;;;;;;4973261;28;20364;-76
2021/03/02 01:56:29;;;;;;;23.48;14.68;;;5.10;99.80;;;;;;4973502;28;20354;-75
2021/03/02 01:58:55;;;;;;;22.13;14.00;;;5.10;99.90;;;;;;4973144;28;20018;-77
2021/03/02 02:01:21;;;;;;;22.67;13.27;;;5.00;99.90;;;;;;4973091;28;20519;-75
2021/03/02 02:03:53;;;;;;;21.58;13.88;;;5.00;99.90;;;;;;4972277;28;20030;-76
2021/03/02 02:06:31;;;;;;;20.83;13.70;;;4.90;99.90;;;;;;4972874;28;20061;-76
2021/03/02 02:09:05;;;;;;;26.17;14.15;;;5.00;99.90;;;;;;4973184;28;20030;-75
2021/03/02 02:11:40;;;;;;;23.17;14.23;;;5.00;99.90;;;;;;4972710;28;20034;-77
2021/03/02 02:14:20;;;;;;;23.75;13.52;;;5.00;99.90;;;;;;4973301;28;20101;-75
2021/03/02 02:16:51;;;;;;;21.45;13.32;;;4.90;99.90;;;;;;4972409;28;20027;-77
2021/03/02 02:19:39;;;;;;;24.27;13.73;;;5.10;99.90;;;;;;4973005;28;20468;-76
2021/03/02 02:22:17;;;;;;;20.65;13.10;;;4.80;99.90;;;;;;4972203;28;20015;-77
2021/03/02 02:25:01;;;;;;;20.45;14.55;;;4.80;99.90;;;;;;4973202;28;20031;-78
2021/03/02 02:27:30;;;;;;;19.00;13.38;;;4.80;99.90;;;;;;4972759;28;20085;-76
2021/03/02 02:29:56;;;;;;;21.95;14.57;;;4.00;99.90;;;;;;4972960;28;20106;-74
2021/03/02 02:32:26;;;;;;;20.30;13.52;;;4.30;99.90;;;;;;4971197;28;20042;-76
2021/03/02 02:34:54;;;;;;;23.92;15.57;;;4.30;99.90;;;;;;4971486;28;20031;-74
2021/03/02 02:37:21;;;;;;;20.95;13.60;;;4.20;99.90;;;;;;4970696;28;20117;-75
2021/03/02 02:39:48;;;;;;;22.98;14.52;;;4.70;99.90;;;;;;4972672;28;20050;-76
2021/03/02 02:42:15;;;;;;;23.40;13.88;;;4.80;99.90;;;;;;4972266;28;20380;-75
2021/03/02 02:44:41;;;;;;;21.38;13.88;;;4.90;99.90;;;;;;4971357;28;20122;-76
2021/03/02 02:47:08;;;;;;;20.02;13.48;;;4.90;99.90;;;;;;4972298;28;20436;-75
2021/03/02 02:49:35;;;;;;;20.48;13.50;;;5.00;99.90;;;;;;4973109;28;20424;-75
2021/03/02 02:52:02;;;;;;;21.25;13.77;;;5.10;99.90;;;;;;4972249;28;20349;-75
2021/03/02 02:54:28;;;;;;;21.50;14.07;;;5.10;99.90;;;;;;4972275;28;20453;-75
2021/03/02 02:56:55;;;;;;;24.33;13.73;;;5.10;99.90;;;;;;4972155;28;20023;-74
2021/03/02 02:59:34;;;;;;;23.92;14.35;;;5.10;99.90;;;;;;4955506;28;20014;-76
2021/03/02 03:02:08;;;;;;;23.30;14.70;;;5.10;99.90;;;;;;4972300;28;20023;-76
2021/03/02 03:04:39;;;;;;;21.10;14.55;;;5.00;99.90;;;;;;4973173;28;20023;-76
2021/03/02 03:07:21;;;;;;;26.15;14.77;;;5.00;99.90;;;;;;4971986;28;20077;-76
2021/03/02 03:09:47;;;;;;;25.67;16.58;;;5.00;99.90;;;;;;4972521;28;20037;-75
2021/03/02 03:12:15;;;;;;;34.95;19.63;;;5.00;99.90;;;;;;4971919;28;20101;-75
2021/03/02 03:14:51;;;;;;;32.33;17.42;;;4.90;99.90;;;;;;4972510;28;20033;-76
2021/03/02 03:17:19;;;;;;;25.65;16.25;;;4.90;99.90;;;;;;4972114;28;20109;-78
2021/03/02 03:19:46;;;;;;;29.90;17.05;;;4.90;99.90;;;;;;4972350;28;20380;-76
2021/03/02 03:22:15;;;;;;;25.92;16.77;;;4.90;99.90;;;;;;4972036;28;20152;-77
2021/03/02 03:24:41;;;;;;;27.67;15.27;;;4.90;99.90;;;;;;4972500;28;20030;-75
2021/03/02 03:27:08;;;;;;;29.90;16.75;;;4.80;99.90;;;;;;4971639;28;20019;-76
2021/03/02 03:29:35;;;;;;;25.50;15.18;;;4.80;99.90;;;;;;4971020;28;20082;-75
2021/03/02 03:32:02;;;;;;;26.75;16.20;;;4.90;99.90;;;;;;4971660;28;20018;-76
2021/03/02 03:34:28;;;;;;;27.77;14.68;;;4.90;99.90;;;;;;4971052;28;20061;-78
2021/03/02 03:36:56;;;;;;;28.45;15.82;;;5.00;99.90;;;;;;4971899;28;20054;-76
2021/03/02 03:39:22;;;;;;;28.27;15.27;;;4.50;99.90;;;;;;4972278;28;20073;-77
2021/03/02 03:41:49;;;;;;;27.30;14.38;;;4.70;99.90;;;;;;4971675;28;20039;-77
2021/03/02 03:44:15;;;;;;;23.85;14.70;;;4.60;99.90;;;;;;4970809;28;20053;-76
2021/03/02 03:46:41;;;;;;;25.30;14.82;;;4.20;99.90;;;;;;4971980;28;20105;-75
2021/03/02 03:49:06;;;;;;;27.27;16.17;;;3.90;99.90;;;;;;4973175;28;20106;-77
2021/03/02 03:51:35;;;;;;;24.80;16.80;;;4.10;99.90;;;;;;4974740;28;20035;-76
2021/03/02 03:54:01;;;;;;;27.25;17.48;;;3.80;99.90;;;;;;4975615;28;20046;-76
2021/03/02 03:56:27;;;;;;;24.80;16.65;;;3.60;99.90;;;;;;4976006;28;20128;-76
2021/03/02 03:58:53;;;;;;;26.90;17.27;;;3.70;99.90;;;;;;4975195;28;20547;-75
2021/03/02 04:01:20;;;;;;;26.58;16.58;;;3.90;99.90;;;;;;4974218;28;20038;-77
2021/03/02 04:03:47;;;;;;;31.13;17.50;;;3.90;99.90;;;;;;4975008;28;20042;-75
2021/03/02 04:06:14;;;;;;;29.77;16.30;;;4.00;99.90;;;;;;4975346;28;20023;-75
2021/03/02 04:08:40;;;;;;;26.15;16.42;;;4.00;99.90;;;;;;4974558;28;20049;-74
2021/03/02 04:11:06;;;;;;;24.90;16.48;;;4.10;99.90;;;;;;4975158;28;20388;-76
2021/03/02 04:13:32;;;;;;;29.15;17.35;;;4.00;99.90;;;;;;4957368;28;20019;-75
2021/03/02 04:15:59;;;;;;;29.60;16.95;;;3.80;99.90;;;;;;4975388;28;20019;-75
2021/03/02 04:18:25;;;;;;;27.88;15.95;;;3.60;99.90;;;;;;4974768;28;20038;-75
2021/03/02 04:20:52;;;;;;;21.83;15.60;;;3.60;99.90;;;;;;4975082;28;20046;-76
2021/03/02 04:23:18;;;;;;;23.48;15.10;;;3.40;99.90;;;;;;4974373;28;20073;-75
2021/03/02 04:25:44;;;;;;;30.38;15.10;;;3.10;99.90;;;;;;4975062;28;20042;-76
2021/03/02 04:28:10;;;;;;;23.48;14.93;;;3.00;99.90;;;;;;4974201;28;20054;-77
2021/03/02 04:30:36;;;;;;;25.95;15.13;;;3.20;99.90;;;;;;4975084;28;20046;-77
2021/03/02 04:33:03;;;;;;;25.50;15.30;;;3.40;99.90;;;;;;4974890;28;20021;-75
2021/03/02 04:35:30;;;;;;;25.92;15.00;;;3.20;99.90;;;;;;4975075;28;20022;-76
2021/03/02 04:37:55;;;;;;;23.13;15.07;;;3.40;99.90;;;;;;4974541;28;20026;-77
2021/03/02 04:40:21;;;;;;;23.23;16.10;;;3.40;99.90;;;;;;4974847;28;20023;-76
2021/03/02 04:42:47;;;;;;;25.50;15.80;;;3.50;99.90;;;;;;4974595;28;20054;-76
2021/03/02 04:45:14;;;;;;;28.00;14.48;;;3.40;99.90;;;;;;4974606;28;20069;-77
2021/03/02 04:47:44;;;;;;;22.77;14.77;;;3.40;99.90;;;;;;4973852;28;20105;-76
2021/03/02 04:50:10;;;;;;;23.48;15.32;;;3.60;99.90;;;;;;4974524;28;20023;-77
2021/03/02 04:52:36;;;;;;;21.95;14.63;;;3.60;99.90;;;;;;4972740;28;20484;-76
2021/03/02 04:55:03;;;;;;;22.67;14.80;;;3.70;99.90;;;;;;4974438;28;20106;-76
2021/03/02 04:57:29;;;;;;;22.35;14.25;;;3.70;99.90;;;;;;4972898;28;20452;-75
2021/03/02 04:59:55;;;;;;;25.10;14.75;;;3.60;99.90;;;;;;4973227;28;20030;-75
2021/03/02 05:02:20;;;;;;;22.55;13.85;;;3.70;99.90;;;;;;4974454;28;20110;-75
2021/03/02 05:04:46;;;;;;;27.20;16.77;;;3.80;99.90;;;;;;4973649;28;20477;-76
2021/03/02 05:07:12;;;;;;;25.23;16.00;;;3.80;99.90;;;;;;4957092;28;20029;-75
2021/03/02 05:09:38;;;;;;;22.80;15.07;;;3.70;99.90;;;;;;4973840;28;20089;-75
2021/03/02 05:12:04;;;;;;;23.42;13.85;;;3.50;99.90;;;;;;4974112;28;20520;-75
2021/03/02 05:14:30;;;;;;;26.95;16.33;;;3.70;99.90;;;;;;4960547;28;20020;-77
2021/03/02 05:16:55;;;;;;;24.38;15.25;;;3.60;99.90;;;;;;4954702;29;20074;-76
2021/03/02 05:19:21;;;;;;;25.85;15.88;;;3.50;99.90;;;;;;4954747;29;20081;-76
2021/03/02 05:21:47;;;;;;;27.20;15.73;;;3.40;99.90;;;;;;4954852;29;20042;-74
2021/03/02 05:24:13;;;;;;;25.17;16.52;;;3.50;99.90;;;;;;4953894;29;20039;-75
2021/03/02 05:26:39;;;;;;;25.55;16.23;;;3.40;99.90;;;;;;4954705;29;20030;-76
2021/03/02 05:29:05;;;;;;;22.48;14.27;;;3.30;99.90;;;;;;4954305;29;20569;-76
2021/03/02 05:31:30;;;;;;;21.27;14.85;;;3.30;99.90;;;;;;4954431;29;20117;-77
2021/03/02 05:33:56;;;;;;;23.77;15.15;;;3.70;99.90;;;;;;4954180;28;20499;-77
2021/03/02 05:36:22;;;;;;;24.77;14.65;;;3.90;99.90;;;;;;4954760;29;20365;-77
2021/03/02 05:38:48;;;;;;;29.80;14.73;;;4.00;99.90;;;;;;4954257;29;20094;-76
2021/03/02 05:41:13;;;;;;;27.00;14.98;;;4.10;99.90;;;;;;4954571;29;20047;-76
2021/03/02 05:43:44;;;;;;;24.65;15.70;;;4.10;99.90;;;;;;4953827;29;20440;-77
2021/03/02 05:46:11;;;;;;;27.20;16.17;;;4.20;99.90;;;;;;4954239;29;20015;-75
2021/03/02 05:48:40;;;;;;;30.08;15.85;;;4.30;99.90;;;;;;4936959;29;20058;-76
2021/03/02 05:51:07;;;;;;;29.92;16.60;;;4.40;99.90;;;;;;4954230;29;20067;-76
2021/03/02 05:53:33;;;;;;;30.48;17.30;;;4.40;99.90;;;;;;4953849;29;20027;-77
2021/03/02 05:55:59;;;;;;;33.35;17.77;;;4.40;99.90;;;;;;4954318;29;20038;-76
2021/03/02 05:58:25;;;;;;;28.63;17.02;;;4.50;99.90;;;;;;4953642;29;20023;-75
2021/03/02 06:00:53;;;;;;;31.45;18.80;;;4.60;99.90;;;;;;4953368;29;20046;-75
2021/03/02 06:03:19;;;;;;;30.50;18.73;;;4.60;99.90;;;;;;4953450;29;20031;-76
2021/03/02 06:05:45;;;;;;;31.52;17.27;;;4.60;99.90;;;;;;4953800;29;20015;-76
2021/03/02 06:08:10;;;;;;;33.42;17.63;;;4.60;99.90;;;;;;4953850;29;20105;-76
2021/03/02 06:10:36;;;;;;;32.88;19.35;;;4.80;99.90;;;;;;4953529;29;20046;-76
2021/03/02 06:13:02;;;;;;;44.92;23.52;;;5.00;99.90;;;;;;4936811;28;20424;-75
2021/03/02 06:15:30;;;;;;;70.20;34.55;;;5.30;99.90;;;;;;4972351;28;20030;-73
2021/03/02 06:18:18;;;;;;;58.95;28.48;;;5.60;99.90;;;;;;4972083;28;20369;-75
2021/03/02 06:20:44;;;;;;;37.22;19.10;;;5.60;99.90;;;;;;4972003;28;20023;-75
2021/03/02 06:23:27;;;;;;;34.47;19.60;;;5.40;99.90;;;;;;4971841;28;20138;-74
2021/03/02 06:26:13;;;;;;;41.85;20.95;;;5.30;99.90;;;;;;4971293;28;20050;-77
2021/03/02 06:28:40;;;;;;;36.88;20.38;;;5.30;99.90;;;;;;4972868;28;20113;-75
2021/03/02 06:31:07;;;;;;;35.88;18.42;;;5.40;99.90;;;;;;4972342;28;20027;-75
2021/03/02 06:33:33;;;;;;;39.85;22.20;;;5.50;99.90;;;;;;4972828;28;20018;-74
2021/03/02 06:36:00;;;;;;;48.55;26.77;;;5.70;99.90;;;;;;4955056;28;20031;-75
2021/03/02 06:38:28;;;;;;;37.13;19.98;;;6.10;99.90;;;;;;4972564;28;20368;-75
2021/03/02 06:40:54;;;;;;;36.70;19.13;;;5.80;99.90;;;;;;4971352;28;20038;-77
2021/03/02 06:43:32;;;;;;;32.75;18.13;;;5.80;99.90;;;;;;4972264;28;20041;-77
2021/03/02 06:46:03;;;;;;;32.33;18.27;;;5.90;99.90;;;;;;4971432;28;20027;-75
2021/03/02 06:48:31;;;;;;;32.22;19.75;;;5.70;99.90;;;;;;4955521;28;20043;-77
2021/03/02 06:50:57;;;;;;;30.60;18.85;;;5.90;99.90;;;;;;4971887;28;20023;-78
2021/03/02 06:53:23;;;;;;;27.42;16.85;;;6.00;99.90;;;;;;4972701;28;20559;-77
2021/03/02 06:55:49;;;;;;;29.95;17.08;;;6.00;99.90;;;;;;4971744;28;20068;-78
2021/03/02 06:58:20;;;;;;;28.63;17.08;;;5.90;99.90;;;;;;4964264;28;20399;-78
2021/03/02 07:00:47;;;;;;;32.35;18.77;;;6.20;99.80;;;;;;4951476;28;20121;-77
2021/03/02 07:03:23;;;;;;;182.43;85.38;;;6.30;99.90;;;;;;4960129;28;20114;-78
2021/03/02 07:05:49;;;;;;;238.82;115.38;;;6.80;99.90;;;;;;4971871;28;20349;-77
2021/03/02 07:08:15;;;;;;;50.13;32.22;;;7.10;99.40;;;;;;4972128;28;20516;-79
2021/03/02 07:10:42;;;;;;;36.83;21.15;;;7.00;98.20;;;;;;4970931;28;20114;-77
2021/03/02 07:13:10;;;;;;;27.40;17.70;;;7.10;97.60;;;;;;4965540;28;20102;-78
2021/03/02 07:15:41;;;;;;;26.75;16.35;;;7.00;97.00;;;;;;4953099;28;20034;-76
2021/03/02 07:18:09;;;;;;;26.10;16.35;;;6.90;96.90;;;;;;4953110;29;20030;-78
2021/03/02 07:20:39;;;;;;;25.38;16.10;;;7.00;97.10;;;;;;4966858;28;20019;-77
2021/03/02 07:23:06;;;;;;;27.25;16.08;;;6.80;97.60;;;;;;4972156;28;20384;-78
2021/03/02 07:25:36;;;;;;;25.92;15.95;;;6.80;98.00;;;;;;4974828;28;20023;-78
2021/03/02 07:28:05;;;;;;;31.58;17.80;;;6.80;98.00;;;;;;4975561;28;20157;-77
2021/03/02 07:30:30;;;;;;;28.17;18.23;;;6.90;98.00;;;;;;4975443;28;20529;-77
2021/03/02 07:32:56;;;;;;;27.90;18.02;;;6.80;98.60;;;;;;4976356;28;20538;-78
2021/03/02 07:35:24;;;;;;;29.42;18.58;;;7.00;98.10;;;;;;4974233;28;20050;-78
2021/03/02 07:37:50;;;;;;;35.40;20.63;;;7.00;98.20;;;;;;4975660;28;20025;-76
2021/03/02 07:40:19;;;;;;;35.50;20.92;;;6.80;98.70;;;;;;4975542;28;20026;-77
2021/03/02 07:42:45;;;;;;;35.08;21.25;;;6.90;98.90;;;;;;4971712;28;20031;-76
2021/03/02 07:45:12;;;;;;;33.13;20.25;;;7.00;98.90;;;;;;4960482;28;20043;-77
2021/03/02 07:47:45;;;;;;;34.17;19.42;;;7.00;98.60;;;;;;4974720;28;20022;-76
2021/03/02 07:50:24;;;;;;;29.38;18.08;;;7.20;98.20;;;;;;4975017;28;20135;-78
2021/03/02 07:53:16;;;;;;;28.95;18.25;;;7.40;97.50;;;;;;4969006;28;20023;-78
2021/03/02 07:55:42;;;;;;;29.42;17.35;;;7.50;97.20;;;;;;4972628;28;20018;-76
2021/03/02 07:58:17;;;;;;;26.90;16.63;;;7.40;96.70;;;;;;4968971;28;20023;-77
2021/03/02 08:00:43;;;;;;;21.65;15.65;;;7.30;97.30;;;;;;4962624;28;20421;-77
2021/03/02 08:03:23;;;;;;;23.25;15.40;;;7.60;97.00;;;;;;4975216;28;20031;-77
2021/03/02 08:06:00;;;;;;;24.33;16.13;;;7.70;96.40;;;;;;4973822;28;20022;-78
2021/03/02 08:08:25;;;;;;;28.63;15.82;;;7.90;95.70;;;;;;4975178;28;20042;-76
2021/03/02 08:10:56;;;;;;;28.27;15.77;;;8.10;95.00;;;;;;4967012;28;20031;-77
2021/03/02 08:13:34;;;;;;;25.90;15.85;;;8.40;94.10;;;;;;4955730;28;20031;-77
2021/03/02 08:16:00;;;;;;;24.63;16.20;;;8.80;92.60;;;;;;4966653;28;20031;-77
2021/03/02 08:18:37;;;;;;;25.70;15.75;;;8.80;91.90;;;;;;4967920;28;20362;-81
2021/03/02 08:21:06;;;;;;;22.33;16.35;;;9.00;91.30;;;;;;4968509;28;20054;-78
2021/03/02 08:23:50;;;;;;;27.58;16.48;;;9.10;90.80;;;;;;4968240;28;20085;-78
2021/03/02 08:26:24;;;;;;;32.08;16.95;;;9.40;90.00;;;;;;4949113;28;20469;-77
2021/03/02 08:29:15;;;;;;;27.10;17.00;;;9.50;90.00;;;;;;4961394;28;20245;-78
2021/03/02 08:31:46;;;;;;;24.45;15.93;;;9.80;86.60;;;;;;4952120;29;20094;-78
2021/03/02 08:34:14;;;;;;;28.23;17.05;;;10.00;85.50;;;;;;4953424;28;20027;-77
2021/03/02 08:36:41;;;;;;;26.60;17.33;;;10.30;84.30;;;;;;4969720;28;20019;-78
2021/03/02 08:39:10;;;;;;;26.50;17.30;;;10.60;81.30;;;;;;4967007;28;20042;-77
2021/03/02 08:41:40;;;;;;;28.48;16.77;;;10.60;80.90;;;;;;4964691;28;20023;-77
2021/03/02 08:44:06;;;;;;;31.15;17.02;;;10.60;80.00;;;;;;4967916;28;20043;-77
2021/03/02 08:46:36;;;;;;;27.02;17.50;;;10.70;79.10;;;;;;4970254;28;20369;-76
2021/03/02 08:49:12;;;;;;;26.30;16.70;;;10.80;78.20;;;;;;4962766;28;20031;-76
2021/03/02 08:51:38;;;;;;;26.38;17.73;;;11.10;77.50;;;;;;4954486;28;20086;-76
2021/03/02 08:54:05;;;;;;;26.98;17.95;;;11.10;76.00;;;;;;4954835;29;20023;-77
2021/03/02 08:56:31;;;;;;;25.42;16.20;;;11.60;74.60;;;;;;4954665;28;20435;-76
2021/03/02 08:59:08;;;;;;;25.85;16.70;;;12.20;71.00;;;;;;4967893;28;20579;-76
2021/03/02 09:01:36;;;;;;;28.77;17.02;;;12.30;70.30;;;;;;4972534;28;20065;-77
2021/03/02 09:04:16;;;;;;;24.38;15.25;;;12.30;70.20;;;;;;4974470;28;20380;-78
2021/03/02 09:06:43;;;;;;;23.98;15.60;;;12.10;68.40;;;;;;4972283;28;20468;-77
2021/03/02 09:09:14;;;;;;;23.25;15.80;;;12.00;68.80;;;;;;4966717;28;20047;-77
2021/03/02 09:11:43;;;;;;;21.35;14.07;;;12.20;67.40;;;;;;4962876;28;20031;-76
2021/03/02 09:14:19;;;;;;;25.00;13.43;;;12.50;65.30;;;;;;4963569;28;20111;-76
2021/03/02 09:16:51;;;;;;;21.55;13.90;;;12.90;63.70;;;;;;4962842;28;20023;-76
2021/03/02 09:19:27;;;;;;;23.50;15.10;;;13.00;63.10;;;;;;4964003;28;20092;-79
2021/03/02 09:22:08;;;;;;;23.67;15.40;;;12.80;63.10;;;;;;4958919;28;20019;-76
2021/03/02 09:24:36;;;;;;;22.67;13.48;;;12.70;63.60;;;;;;4945568;28;20034;-78
2021/03/02 09:27:03;;;;;;;20.10;12.82;;;13.50;62.30;;;;;;4959994;28;20023;-77
2021/03/02 09:29:34;;;;;;;19.88;12.93;;;14.00;60.10;;;;;;4962440;28;20333;-76
2021/03/02 09:32:05;;;;;;;19.13;13.45;;;14.30;58.60;;;;;;4965699;28;20070;-76
2021/03/02 09:34:39;;;;;;;20.98;13.45;;;14.70;57.80;;;;;;4958555;28;20033;-77
2021/03/02 09:37:10;;;;;;;17.10;11.77;;;14.80;57.20;;;;;;4958434;28;20472;-77
2021/03/02 09:39:38;;;;;;;18.67;12.02;;;14.90;55.20;;;;;;4961659;28;20027;-77
2021/03/02 09:42:27;;;;;;;22.25;13.05;;;13.60;55.70;;;;;;4961965;28;20023;-78
2021/03/02 09:45:11;;;;;;;17.00;12.02;;;13.90;56.40;;;;;;4962595;28;20416;-78
2021/03/02 09:47:38;;;;;;;24.90;11.20;;;15.10;59.90;;;;;;4957897;28;20030;-77
2021/03/02 09:50:18;;;;;;;17.15;10.48;;;16.50;55.80;;;;;;4960266;28;20500;-80
2021/03/02 09:52:48;;;;;;;15.65;10.57;;;16.50;53.90;;;;;;4968718;28;20376;-78
2021/03/02 09:55:21;;;;;;;17.38;9.55;;;16.80;53.00;;;;;;4939660;28;20020;-79
2021/03/02 09:58:07;;;;;;;16.20;8.70;;;17.10;52.30;;;;;;4961577;28;20027;-79
2021/03/02 10:00:40;;;;;;;14.38;7.95;;;17.10;49.20;;;;;;4953739;29;20369;-78
2021/03/02 10:03:17;;;;;;;14.65;7.88;;;16.40;47.50;;;;;;4936015;29;20108;-78
2021/03/02 10:05:52;;;;;;;11.82;7.63;;;16.40;47.40;;;;;;4953523;29;20101;-79
2021/03/02 10:08:35;;;;;;;12.90;8.00;;;16.30;45.60;;;;;;4959557;28;20085;-76
2021/03/02 10:11:10;;;;;;;13.05;7.95;;;15.40;47.70;;;;;;4958930;28;20039;-80
2021/03/02 10:13:37;;;;;;;13.18;7.15;;;16.00;49.20;;;;;;4959328;28;20037;-79
2021/03/02 10:16:22;;;;;;;10.55;6.15;;;16.30;46.20;;;;;;4965503;28;20033;-78
2021/03/02 10:18:56;;;;;;;8.98;5.05;;;15.30;45.00;;;;;;4963697;28;20102;-79
2021/03/02 10:21:24;;;;;;;10.02;5.95;;;15.60;45.90;;;;;;4962601;28;20023;-80
2021/03/02 10:23:54;;;;;;;7.47;4.53;;;17.10;46.50;;;;;;4961227;28;20493;-80
2021/03/02 10:26:27;;;;;;;8.40;4.18;;;17.50;43.40;;;;;;4963394;28;20475;-80
2021/03/02 10:28:53;;;;;;;6.97;4.35;;;16.10;44.00;;;;;;4957089;28;20500;-78
2021/03/02 10:31:19;;;;;;;6.35;3.95;;;17.10;44.70;;;;;;4955645;28;20030;-77
2021/03/02 10:33:46;;;;;;;7.40;4.75;;;14.50;44.60;;;;;;4965968;28;20070;-79
2021/03/02 10:36:26;;;;;;;7.47;4.80;;;14.20;46.00;;;;;;4961601;28;20011;-76
2021/03/02 10:38:54;;;;;;;9.07;5.65;;;15.20;46.30;;;;;;4962669;28;20019;-77
2021/03/02 10:41:20;;;;;;;8.57;5.47;;;14.60;46.90;;;;;;4960802;28;20035;-78
2021/03/02 10:43:50;;;;;;;7.53;4.97;;;16.00;45.20;;;;;;4962345;28;20071;-76
2021/03/02 10:46:17;;;;;;;8.07;5.07;;;16.50;45.30;;;;;;4961772;28;20393;-77
2021/03/02 10:48:43;;;;;;;7.93;4.80;;;16.70;44.90;;;;;;4962891;28;20058;-78
2021/03/02 10:51:09;;;;;;;7.90;4.82;;;17.80;44.40;;;;;;4965076;28;20380;-80
2021/03/02 10:53:35;;;;;;;9.40;5.55;;;18.30;42.50;;;;;;4968272;28;20019;-75
2021/03/02 10:56:01;;;;;;;8.32;4.97;;;18.20;41.90;;;;;;4970361;28;20050;-78
2021/03/02 10:58:27;;;;;;;8.52;4.97;;;18.00;41.80;;;;;;4966280;28;20077;-78
2021/03/02 11:00:55;;;;;;;9.55;6.00;;;18.00;42.60;;;;;;4972610;28;20031;-76
2021/03/02 11:03:23;;;;;;;9.25;5.45;;;17.90;42.40;;;;;;4973472;28;20428;-78
2021/03/02 11:05:50;;;;;;;10.00;5.75;;;17.30;42.10;;;;;;4976627;28;20428;-75
2021/03/02 11:08:16;;;;;;;7.95;5.25;;;14.60;44.60;;;;;;4973230;28;20357;-77
2021/03/02 11:10:42;;;;;;;8.40;5.50;;;14.60;46.60;;;;;;4970498;28;20106;-79
2021/03/02 11:13:07;;;;;;;10.60;5.72;;;15.10;47.20;;;;;;4968721;28;20098;-80
2021/03/02 11:15:33;;;;;;;8.20;5.00;;;16.00;45.70;;;;;;4966487;28;20050;-78
2021/03/02 11:17:59;;;;;;;8.45;5.13;;;15.80;46.30;;;;;;4974197;28;20037;-78
2021/03/02 11:20:25;;;;;;;8.45;5.13;;;16.30;45.00;;;;;;4973868;28;20146;-78
2021/03/02 11:22:50;;;;;;;7.88;5.25;;;16.30;44.20;;;;;;4973598;28;20044;-75
2021/03/02 11:25:19;;;;;;;8.57;5.35;;;14.10;47.10;;;;;;4974565;28;20034;-76
2021/03/02 11:27:46;;;;;;;8.88;5.30;;;15.30;46.70;;;;;;4973553;28;20034;-77
2021/03/02 11:30:13;;;;;;;8.40;5.70;;;14.90;46.70;;;;;;4974105;28;20015;-78
2021/03/02 11:32:39;;;;;;;8.60;5.28;;;15.30;45.60;;;;;;4973539;28;20018;-78
2021/03/02 11:35:06;;;;;;;9.98;5.95;;;16.40;44.80;;;;;;4956170;28;20117;-76
2021/03/02 11:37:32;;;;;;;8.65;5.75;;;16.80;44.90;;;;;;4974536;28;20420;-77
2021/03/02 11:39:58;;;;;;;9.90;5.28;;;15.70;44.90;;;;;;4972498;28;20456;-78
2021/03/02 11:42:25;;;;;;;9.02;5.45;;;15.20;45.70;;;;;;4973981;28;20018;-77
2021/03/02 11:44:51;;;;;;;10.23;6.03;;;16.10;45.20;;;;;;4954122;28;20480;-76
2021/03/02 11:47:17;;;;;;;8.27;5.30;;;15.40;45.30;;;;;;4974910;28;20029;-77
2021/03/02 11:49:42;;;;;;;9.48;5.50;;;14.80;45.60;;;;;;4974739;28;20539;-76
2021/03/02 11:52:08;;;;;;;8.48;5.32;;;13.90;47.30;;;;;;4974852;28;20041;-75
2021/03/02 11:54:34;;;;;;;11.07;5.47;;;14.70;47.20;;;;;;4974276;28;20010;-75
2021/03/02 11:57:00;;;;;;;10.18;5.63;;;14.70;46.80;;;;;;4975218;28;20027;-76
2021/03/02 11:59:25;;;;;;;8.68;5.88;;;14.10;47.70;;;;;;4974354;28;20085;-76
2021/03/02 12:01:51;;;;;;;10.00;6.15;;;14.20;47.60;;;;;;4974727;28;20054;-79
2021/03/02 12:04:17;;;;;;;12.48;6.32;;;14.60;47.70;;;;;;4974347;28;20027;-77
2021/03/02 12:06:42;;;;;;;9.00;5.07;;;15.20;47.30;;;;;;4946970;28;20045;-77
2021/03/02 12:09:08;;;;;;;9.70;5.85;;;14.90;46.40;;;;;;4974862;28;20102;-80
2021/03/02 12:11:34;;;;;;;11.57;5.93;;;16.10;47.10;;;;;;4973795;28;20483;-78
2021/03/02 12:13:59;;;;;;;11.40;5.88;;;17.90;46.10;;;;;;4969082;28;20033;-79
2021/03/02 12:16:25;;;;;;;11.70;6.07;;;18.80;44.30;;;;;;4969408;28;20684;-77
2021/03/02 12:18:51;;;;;;;10.70;4.88;;;19.10;42.30;;;;;;4972535;28;20500;-76
2021/03/02 12:21:17;;;;;;;15.23;5.63;;;18.00;41.80;;;;;;4974368;28;20025;-76
2021/03/02 12:23:43;;;;;;;10.82;5.00;;;18.60;43.30;;;;;;4974326;28;20457;-77
2021/03/02 12:26:08;;;;;;;8.38;5.30;;;18.00;41.00;;;;;;4969814;28;20138;-78
2021/03/02 12:28:34;;;;;;;8.98;5.65;;;15.50;44.00;;;;;;4966442;28;20066;-77
2021/03/02 12:31:00;;;;;;;7.78;5.10;;;15.40;44.10;;;;;;4964364;28;20049;-78
2021/03/02 12:33:26;;;;;;;8.90;5.70;;;15.40;45.10;;;;;;4961058;28;20027;-78
2021/03/02 12:35:51;;;;;;;8.57;5.72;;;16.40;43.10;;;;;;4962375;28;20431;-79
2021/03/02 12:38:17;;;;;;;9.50;5.18;;;16.50;43.30;;;;;;4956660;28;20031;-77
2021/03/02 12:40:43;;;;;;;8.65;5.40;;;18.00;43.00;;;;;;4973400;28;20083;-77
2021/03/02 12:43:09;;;;;;;12.77;5.47;;;17.60;41.50;;;;;;4973127;28;20019;-76
2021/03/02 12:45:35;;;;;;;10.65;5.38;;;17.50;42.10;;;;;;4963828;28;20086;-77